sensor_id;sensor_type;location;lat;lon;timestamp;P1;durP1;ratioP1;P2;durP2;ratioP2
48327;SDS011;34136;51.022;7.082;2022-12-07T00:01:47;46.97;;;34.85;;
48327;SDS011;34136;51.022;7.082;2022-12-07T00:04:32;47.25;;;35.22;;
48327;SDS011;34136;51.022;7.082;2022-12-07T00:07:18;47.67;;;35.10;;
48327;SDS011;34136;51.022;7.082;2022-12-07T00:10:05;45.13;;;35.30;;
48327;SDS011;34136;51.022;7.082;2022-12-07T00:13:10;41.42;;;31.58;;
48327;SDS011;34136;51.022;7.082;2022-12-07T00:16:15;42.28;;;32.67;;
48327;SDS011;34136;51.022;7.082;2022-12-07T00:19:02;42.35;;;33.28;;
48327;SDS011;34136;51.022;7.082;2022-12-07T00:21:49;40.15;;;31.52;;
48327;SDS011;34136;51.022;7.082;2022-12-07T00:24:35;48.08;;;32.03;;
48327;SDS011;34136;51.022;7.082;2022-12-07T00:27:21;44.30;;;31.58;;
48327;SDS011;34136;51.022;7.082;2022-12-07T00:30:07;47.65;;;32.75;;
48327;SDS011;34136;51.022;7.082;2022-12-07T00:33:12;41.33;;;31.88;;
48327;SDS011;34136;51.022;7.082;2022-12-07T00:35:58;43.85;;;30.83;;
48327;SDS011;34136;51.022;7.082;2022-12-07T00:38:46;39.67;;;30.23;;
48327;SDS011;34136;51.022;7.082;2022-12-07T00:41:32;43.72;;;31.65;;
48327;SDS011;34136;51.022;7.082;2022-12-07T00:44:18;42.92;;;31.40;;
48327;SDS011;34136;51.022;7.082;2022-12-07T00:47:04;41.50;;;30.25;;
48327;SDS011;34136;51.022;7.082;2022-12-07T00:49:51;39.03;;;30.90;;
48327;SDS011;34136;51.022;7.082;2022-12-07T00:52:55;42.60;;;30.42;;
48327;SDS011;34136;51.022;7.082;2022-12-07T00:56:04;40.88;;;29.48;;
48327;SDS011;34136;51.022;7.082;2022-12-07T00:58:58;37.97;;;30.55;;
48327;SDS011;34136;51.022;7.082;2022-12-07T01:01:46;40.70;;;31.83;;
48327;SDS011;34136;51.022;7.082;2022-12-07T01:04:50;39.25;;;30.42;;
48327;SDS011;34136;51.022;7.082;2022-12-07T01:07:54;41.22;;;30.80;;
48327;SDS011;34136;51.022;7.082;2022-12-07T01:10:40;37.58;;;30.35;;
48327;SDS011;34136;51.022;7.082;2022-12-07T01:13:27;38.45;;;30.27;;
48327;SDS011;34136;51.022;7.082;2022-12-07T01:16:14;37.63;;;30.52;;
48327;SDS011;34136;51.022;7.082;2022-12-07T01:19:01;40.03;;;29.98;;
48327;SDS011;34136;51.022;7.082;2022-12-07T01:21:48;39.75;;;30.52;;
48327;SDS011;34136;51.022;7.082;2022-12-07T01:24:34;36.03;;;29.20;;
48327;SDS011;34136;51.022;7.082;2022-12-07T01:27:20;40.00;;;29.02;;
48327;SDS011;34136;51.022;7.082;2022-12-07T01:30:06;42.22;;;29.38;;
48327;SDS011;34136;51.022;7.082;2022-12-07T01:32:53;37.47;;;28.63;;
48327;SDS011;34136;51.022;7.082;2022-12-07T01:35:40;40.55;;;28.90;;
48327;SDS011;34136;51.022;7.082;2022-12-07T01:38:26;38.88;;;30.38;;
48327;SDS011;34136;51.022;7.082;2022-12-07T01:41:14;38.47;;;30.25;;
48327;SDS011;34136;51.022;7.082;2022-12-07T01:44:23;35.92;;;32.03;;
48327;SDS011;34136;51.022;7.082;2022-12-07T01:47:11;37.72;;;30.52;;
48327;SDS011;34136;51.022;7.082;2022-12-07T01:49:57;38.05;;;31.05;;
48327;SDS011;34136;51.022;7.082;2022-12-07T01:52:43;40.15;;;30.27;;
48327;SDS011;34136;51.022;7.082;2022-12-07T01:55:33;41.67;;;31.75;;
48327;SDS011;34136;51.022;7.082;2022-12-07T01:58:23;41.17;;;31.95;;
48327;SDS011;34136;51.022;7.082;2022-12-07T02:01:10;41.30;;;32.05;;
48327;SDS011;34136;51.022;7.082;2022-12-07T02:03:56;41.75;;;32.00;;
48327;SDS011;34136;51.022;7.082;2022-12-07T02:06:43;46.17;;;34.35;;
48327;SDS011;34136;51.022;7.082;2022-12-07T02:09:49;45.33;;;32.80;;
48327;SDS011;34136;51.022;7.082;2022-12-07T02:12:58;45.22;;;34.42;;
48327;SDS011;34136;51.022;7.082;2022-12-07T02:19:27;42.13;;;34.00;;
48327;SDS011;34136;51.022;7.082;2022-12-07T02:22:48;44.38;;;34.75;;
48327;SDS011;34136;51.022;7.082;2022-12-07T02:32:16;43.88;;;33.40;;
48327;SDS011;34136;51.022;7.082;2022-12-07T02:35:11;42.67;;;33.83;;
48327;SDS011;34136;51.022;7.082;2022-12-07T02:38:19;43.47;;;34.90;;
48327;SDS011;34136;51.022;7.082;2022-12-07T02:41:20;48.15;;;36.53;;
48327;SDS011;34136;51.022;7.082;2022-12-07T02:44:29;45.35;;;34.80;;
48327;SDS011;34136;51.022;7.082;2022-12-07T02:47:17;46.03;;;36.42;;
48327;SDS011;34136;51.022;7.082;2022-12-07T02:50:26;46.78;;;37.20;;
48327;SDS011;34136;51.022;7.082;2022-12-07T02:53:32;49.67;;;36.65;;
48327;SDS011;34136;51.022;7.082;2022-12-07T02:56:45;50.40;;;37.13;;
48327;SDS011;34136;51.022;7.082;2022-12-07T03:00:09;46.72;;;36.38;;
48327;SDS011;34136;51.022;7.082;2022-12-07T03:03:00;48.88;;;37.53;;
48327;SDS011;34136;51.022;7.082;2022-12-07T03:08:56;49.03;;;36.60;;
48327;SDS011;34136;51.022;7.082;2022-12-07T03:11:51;44.63;;;36.55;;
48327;SDS011;34136;51.022;7.082;2022-12-07T03:15:05;43.92;;;36.13;;
48327;SDS011;34136;51.022;7.082;2022-12-07T03:17:55;46.45;;;37.65;;
48327;SDS011;34136;51.022;7.082;2022-12-07T03:20:45;44.55;;;37.53;;
48327;SDS011;34136;51.022;7.082;2022-12-07T03:23:34;50.53;;;37.97;;
48327;SDS011;34136;51.022;7.082;2022-12-07T03:26:24;48.35;;;38.25;;
48327;SDS011;34136;51.022;7.082;2022-12-07T03:29:19;49.97;;;38.53;;
48327;SDS011;34136;51.022;7.082;2022-12-07T03:35:21;51.72;;;39.15;;
48327;SDS011;34136;51.022;7.082;2022-12-07T03:38:18;49.00;;;38.75;;
48327;SDS011;34136;51.022;7.082;2022-12-07T03:43:57;50.60;;;37.95;;
48327;SDS011;34136;51.022;7.082;2022-12-07T03:47:00;45.00;;;37.50;;
48327;SDS011;34136;51.022;7.082;2022-12-07T03:49:55;45.45;;;36.83;;
48327;SDS011;34136;51.022;7.082;2022-12-07T03:52:53;49.20;;;37.83;;
48327;SDS011;34136;51.022;7.082;2022-12-07T03:55:44;46.08;;;37.95;;
48327;SDS011;34136;51.022;7.082;2022-12-07T03:58:33;43.35;;;36.97;;
48327;SDS011;34136;51.022;7.082;2022-12-07T04:01:20;42.97;;;36.88;;
48327;SDS011;34136;51.022;7.082;2022-12-07T04:04:20;48.22;;;38.47;;
48327;SDS011;34136;51.022;7.082;2022-12-07T04:07:25;45.80;;;37.78;;
48327;SDS011;34136;51.022;7.082;2022-12-07T04:10:11;48.85;;;37.60;;
48327;SDS011;34136;51.022;7.082;2022-12-07T04:12:58;47.35;;;39.45;;
48327;SDS011;34136;51.022;7.082;2022-12-07T04:15:44;48.53;;;38.92;;
48327;SDS011;34136;51.022;7.082;2022-12-07T04:18:30;46.78;;;39.58;;
48327;SDS011;34136;51.022;7.082;2022-12-07T04:21:17;48.75;;;39.40;;
48327;SDS011;34136;51.022;7.082;2022-12-07T04:24:03;46.28;;;39.00;;
48327;SDS011;34136;51.022;7.082;2022-12-07T04:27:08;44.17;;;37.30;;
48327;SDS011;34136;51.022;7.082;2022-12-07T04:29:55;49.97;;;38.58;;
48327;SDS011;34136;51.022;7.082;2022-12-07T04:32:41;42.30;;;37.25;;
48327;SDS011;34136;51.022;7.082;2022-12-07T04:35:46;46.47;;;38.10;;
48327;SDS011;34136;51.022;7.082;2022-12-07T04:38:32;47.63;;;38.85;;
48327;SDS011;34136;51.022;7.082;2022-12-07T04:41:18;50.00;;;37.92;;
48327;SDS011;34136;51.022;7.082;2022-12-07T04:44:05;45.75;;;37.78;;
48327;SDS011;34136;51.022;7.082;2022-12-07T04:46:51;48.42;;;37.78;;
48327;SDS011;34136;51.022;7.082;2022-12-07T04:49:38;44.83;;;38.63;;
48327;SDS011;34136;51.022;7.082;2022-12-07T04:52:43;44.63;;;37.97;;
48327;SDS011;34136;51.022;7.082;2022-12-07T04:55:29;49.65;;;40.22;;
48327;SDS011;34136;51.022;7.082;2022-12-07T04:58:34;45.53;;;39.30;;
48327;SDS011;34136;51.022;7.082;2022-12-07T05:01:38;44.20;;;37.85;;
48327;SDS011;34136;51.022;7.082;2022-12-07T05:04:25;41.05;;;36.55;;
48327;SDS011;34136;51.022;7.082;2022-12-07T05:07:11;44.55;;;37.60;;
48327;SDS011;34136;51.022;7.082;2022-12-07T05:09:57;46.63;;;38.90;;
48327;SDS011;34136;51.022;7.082;2022-12-07T05:12:44;43.38;;;37.25;;
48327;SDS011;34136;51.022;7.082;2022-12-07T05:15:30;42.45;;;35.85;;
48327;SDS011;34136;51.022;7.082;2022-12-07T05:18:35;44.92;;;34.85;;
48327;SDS011;34136;51.022;7.082;2022-12-07T05:21:21;42.10;;;35.13;;
48327;SDS011;34136;51.022;7.082;2022-12-07T05:24:10;40.60;;;34.33;;
48327;SDS011;34136;51.022;7.082;2022-12-07T05:26:57;38.22;;;33.63;;
48327;SDS011;34136;51.022;7.082;2022-12-07T05:29:43;42.53;;;35.70;;
48327;SDS011;34136;51.022;7.082;2022-12-07T05:32:30;42.25;;;34.83;;
48327;SDS011;34136;51.022;7.082;2022-12-07T05:35:16;44.17;;;36.47;;
48327;SDS011;34136;51.022;7.082;2022-12-07T05:38:03;42.92;;;34.63;;
48327;SDS011;34136;51.022;7.082;2022-12-07T05:40:49;39.92;;;34.28;;
48327;SDS011;34136;51.022;7.082;2022-12-07T05:43:53;43.40;;;35.00;;
48327;SDS011;34136;51.022;7.082;2022-12-07T05:46:59;43.67;;;33.53;;
48327;SDS011;34136;51.022;7.082;2022-12-07T05:49:46;44.30;;;34.92;;
48327;SDS011;34136;51.022;7.082;2022-12-07T05:52:32;44.42;;;34.75;;
48327;SDS011;34136;51.022;7.082;2022-12-07T05:55:19;40.95;;;33.92;;
48327;SDS011;34136;51.022;7.082;2022-12-07T05:58:05;40.95;;;33.60;;
48327;SDS011;34136;51.022;7.082;2022-12-07T06:00:53;35.33;;;31.50;;
48327;SDS011;34136;51.022;7.082;2022-12-07T06:03:40;40.25;;;32.30;;
48327;SDS011;34136;51.022;7.082;2022-12-07T06:06:27;37.65;;;29.83;;
48327;SDS011;34136;51.022;7.082;2022-12-07T06:09:13;34.47;;;29.38;;
48327;SDS011;34136;51.022;7.082;2022-12-07T06:12:00;34.28;;;28.38;;
48327;SDS011;34136;51.022;7.082;2022-12-07T06:14:46;38.05;;;28.90;;
48327;SDS011;34136;51.022;7.082;2022-12-07T06:17:32;34.10;;;29.38;;
48327;SDS011;34136;51.022;7.082;2022-12-07T06:20:18;37.00;;;29.23;;
48327;SDS011;34136;51.022;7.082;2022-12-07T06:23:04;35.53;;;29.25;;
48327;SDS011;34136;51.022;7.082;2022-12-07T06:25:50;38.95;;;29.73;;
48327;SDS011;34136;51.022;7.082;2022-12-07T06:28:36;32.53;;;27.77;;
48327;SDS011;34136;51.022;7.082;2022-12-07T06:31:22;36.78;;;29.63;;
48327;SDS011;34136;51.022;7.082;2022-12-07T06:34:13;32.42;;;28.45;;
48327;SDS011;34136;51.022;7.082;2022-12-07T06:37:01;38.08;;;28.35;;
48327;SDS011;34136;51.022;7.082;2022-12-07T06:39:47;37.45;;;28.00;;
48327;SDS011;34136;51.022;7.082;2022-12-07T06:42:33;32.05;;;27.10;;
48327;SDS011;34136;51.022;7.082;2022-12-07T06:45:20;37.17;;;27.17;;
48327;SDS011;34136;51.022;7.082;2022-12-07T06:48:06;31.13;;;27.33;;
48327;SDS011;34136;51.022;7.082;2022-12-07T06:50:53;31.42;;;26.48;;
48327;SDS011;34136;51.022;7.082;2022-12-07T06:53:39;32.05;;;26.88;;
48327;SDS011;34136;51.022;7.082;2022-12-07T06:56:26;32.97;;;27.45;;
48327;SDS011;34136;51.022;7.082;2022-12-07T06:59:31;34.42;;;27.55;;
48327;SDS011;34136;51.022;7.082;2022-12-07T07:02:17;32.00;;;25.05;;
48327;SDS011;34136;51.022;7.082;2022-12-07T07:05:03;36.95;;;26.42;;
48327;SDS011;34136;51.022;7.082;2022-12-07T07:07:50;34.22;;;25.10;;
48327;SDS011;34136;51.022;7.082;2022-12-07T07:10:36;33.15;;;26.45;;
48327;SDS011;34136;51.022;7.082;2022-12-07T07:13:23;33.28;;;25.13;;
48327;SDS011;34136;51.022;7.082;2022-12-07T07:16:09;32.15;;;26.77;;
48327;SDS011;34136;51.022;7.082;2022-12-07T07:18:55;34.67;;;26.67;;
48327;SDS011;34136;51.022;7.082;2022-12-07T07:22:00;33.58;;;26.85;;
48327;SDS011;34136;51.022;7.082;2022-12-07T07:25:08;31.73;;;25.73;;
48327;SDS011;34136;51.022;7.082;2022-12-07T07:28:13;38.40;;;27.23;;
48327;SDS011;34136;51.022;7.082;2022-12-07T07:31:00;35.92;;;27.88;;
48327;SDS011;34136;51.022;7.082;2022-12-07T07:34:05;32.22;;;27.08;;
48327;SDS011;34136;51.022;7.082;2022-12-07T07:36:52;31.80;;;26.88;;
48327;SDS011;34136;51.022;7.082;2022-12-07T07:39:56;35.30;;;27.75;;
48327;SDS011;34136;51.022;7.082;2022-12-07T07:43:00;29.95;;;24.73;;
48327;SDS011;34136;51.022;7.082;2022-12-07T07:45:47;36.25;;;28.90;;
48327;SDS011;34136;51.022;7.082;2022-12-07T07:48:33;34.78;;;27.23;;
48327;SDS011;34136;51.022;7.082;2022-12-07T07:51:19;31.67;;;26.80;;
48327;SDS011;34136;51.022;7.082;2022-12-07T07:54:24;36.53;;;27.75;;
48327;SDS011;34136;51.022;7.082;2022-12-07T07:57:10;32.13;;;27.98;;
48327;SDS011;34136;51.022;7.082;2022-12-07T07:59:56;36.38;;;28.48;;
48327;SDS011;34136;51.022;7.082;2022-12-07T08:02:43;32.58;;;28.33;;
48327;SDS011;34136;51.022;7.082;2022-12-07T08:05:29;40.55;;;29.10;;
48327;SDS011;34136;51.022;7.082;2022-12-07T08:08:34;37.58;;;29.95;;
48327;SDS011;34136;51.022;7.082;2022-12-07T08:11:21;31.73;;;27.27;;
48327;SDS011;34136;51.022;7.082;2022-12-07T08:14:07;35.88;;;28.50;;
48327;SDS011;34136;51.022;7.082;2022-12-07T08:16:53;33.83;;;28.65;;
48327;SDS011;34136;51.022;7.082;2022-12-07T08:19:40;36.85;;;28.67;;
48327;SDS011;34136;51.022;7.082;2022-12-07T08:22:26;35.47;;;30.20;;
48327;SDS011;34136;51.022;7.082;2022-12-07T08:25:13;36.85;;;30.42;;
48327;SDS011;34136;51.022;7.082;2022-12-07T08:27:59;38.17;;;30.63;;
48327;SDS011;34136;51.022;7.082;2022-12-07T08:30:46;42.30;;;31.40;;
48327;SDS011;34136;51.022;7.082;2022-12-07T08:33:32;37.30;;;30.85;;
48327;SDS011;34136;51.022;7.082;2022-12-07T08:36:19;38.17;;;31.48;;
48327;SDS011;34136;51.022;7.082;2022-12-07T08:39:05;38.25;;;32.83;;
48327;SDS011;34136;51.022;7.082;2022-12-07T08:42:10;39.05;;;29.83;;
48327;SDS011;34136;51.022;7.082;2022-12-07T08:44:56;39.67;;;29.20;;
48327;SDS011;34136;51.022;7.082;2022-12-07T08:48:02;37.60;;;29.08;;
48327;SDS011;34136;51.022;7.082;2022-12-07T08:51:12;34.60;;;27.02;;
48327;SDS011;34136;51.022;7.082;2022-12-07T08:53:59;39.00;;;26.50;;
48327;SDS011;34136;51.022;7.082;2022-12-07T08:56:49;32.40;;;26.90;;
48327;SDS011;34136;51.022;7.082;2022-12-07T08:59:36;34.38;;;26.98;;
48327;SDS011;34136;51.022;7.082;2022-12-07T09:02:22;34.70;;;26.60;;
48327;SDS011;34136;51.022;7.082;2022-12-07T09:05:09;32.78;;;24.48;;
48327;SDS011;34136;51.022;7.082;2022-12-07T09:07:57;33.63;;;24.42;;
48327;SDS011;34136;51.022;7.082;2022-12-07T09:10:47;29.48;;;24.25;;
48327;SDS011;34136;51.022;7.082;2022-12-07T09:13:33;29.83;;;23.70;;
48327;SDS011;34136;51.022;7.082;2022-12-07T09:16:19;29.08;;;22.67;;
48327;SDS011;34136;51.022;7.082;2022-12-07T09:19:05;32.60;;;24.60;;
48327;SDS011;34136;51.022;7.082;2022-12-07T09:21:53;33.53;;;22.90;;
48327;SDS011;34136;51.022;7.082;2022-12-07T09:24:39;29.58;;;22.63;;
48327;SDS011;34136;51.022;7.082;2022-12-07T09:27:25;28.23;;;22.02;;
48327;SDS011;34136;51.022;7.082;2022-12-07T09:30:12;33.33;;;22.73;;
48327;SDS011;34136;51.022;7.082;2022-12-07T09:32:58;28.65;;;21.83;;
48327;SDS011;34136;51.022;7.082;2022-12-07T09:35:45;28.50;;;23.30;;
48327;SDS011;34136;51.022;7.082;2022-12-07T09:38:51;36.28;;;25.45;;
48327;SDS011;34136;51.022;7.082;2022-12-07T09:41:38;29.88;;;24.65;;
48327;SDS011;34136;51.022;7.082;2022-12-07T09:44:27;31.75;;;23.95;;
48327;SDS011;34136;51.022;7.082;2022-12-07T09:47:13;31.35;;;23.77;;
48327;SDS011;34136;51.022;7.082;2022-12-07T09:50:03;31.42;;;22.90;;
48327;SDS011;34136;51.022;7.082;2022-12-07T09:53:08;29.58;;;23.35;;
48327;SDS011;34136;51.022;7.082;2022-12-07T09:56:01;26.98;;;22.25;;
48327;SDS011;34136;51.022;7.082;2022-12-07T09:59:09;28.95;;;22.48;;
48327;SDS011;34136;51.022;7.082;2022-12-07T10:05:14;29.42;;;22.08;;
48327;SDS011;34136;51.022;7.082;2022-12-07T10:08:04;26.55;;;20.60;;
48327;SDS011;34136;51.022;7.082;2022-12-07T10:11:09;26.38;;;21.05;;
48327;SDS011;34136;51.022;7.082;2022-12-07T10:13:55;28.73;;;21.45;;
48327;SDS011;34136;51.022;7.082;2022-12-07T10:17:29;26.70;;;20.88;;
48327;SDS011;34136;51.022;7.082;2022-12-07T10:20:35;24.55;;;19.83;;
48327;SDS011;34136;51.022;7.082;2022-12-07T10:23:22;27.00;;;19.38;;
48327;SDS011;34136;51.022;7.082;2022-12-07T10:29:34;23.77;;;19.08;;
48327;SDS011;34136;51.022;7.082;2022-12-07T10:32:28;22.35;;;18.35;;
48327;SDS011;34136;51.022;7.082;2022-12-07T10:35:36;24.42;;;18.63;;
48327;SDS011;34136;51.022;7.082;2022-12-07T10:38:28;25.35;;;19.60;;
48327;SDS011;34136;51.022;7.082;2022-12-07T10:41:16;26.20;;;20.00;;
48327;SDS011;34136;51.022;7.082;2022-12-07T10:44:02;23.90;;;18.65;;
48327;SDS011;34136;51.022;7.082;2022-12-07T10:53:33;23.85;;;18.27;;
48327;SDS011;34136;51.022;7.082;2022-12-07T11:02:50;23.63;;;18.50;;
48327;SDS011;34136;51.022;7.082;2022-12-07T11:18:03;18.35;;;12.65;;
48327;SDS011;34136;51.022;7.082;2022-12-07T11:21:17;22.70;;;12.10;;
48327;SDS011;34136;51.022;7.082;2022-12-07T11:37:08;17.65;;;11.70;;
48327;SDS011;34136;51.022;7.082;2022-12-07T11:40:25;20.75;;;11.07;;
48327;SDS011;34136;51.022;7.082;2022-12-07T11:46:12;18.52;;;11.43;;
48327;SDS011;34136;51.022;7.082;2022-12-07T11:49:03;20.15;;;11.55;;
48327;SDS011;34136;51.022;7.082;2022-12-07T11:51:57;19.33;;;11.27;;
48327;SDS011;34136;51.022;7.082;2022-12-07T11:54:46;17.88;;;10.07;;
48327;SDS011;34136;51.022;7.082;2022-12-07T11:57:41;19.35;;;11.10;;
48327;SDS011;34136;51.022;7.082;2022-12-07T12:00:49;23.58;;;10.68;;
48327;SDS011;34136;51.022;7.082;2022-12-07T12:03:42;20.27;;;10.48;;
48327;SDS011;34136;51.022;7.082;2022-12-07T12:06:38;23.77;;;11.02;;
48327;SDS011;34136;51.022;7.082;2022-12-07T12:09:34;20.42;;;10.50;;
48327;SDS011;34136;51.022;7.082;2022-12-07T12:21:43;15.68;;;9.65;;
48327;SDS011;34136;51.022;7.082;2022-12-07T12:24:33;21.02;;;10.30;;
48327;SDS011;34136;51.022;7.082;2022-12-07T12:30:07;16.10;;;9.82;;
48327;SDS011;34136;51.022;7.082;2022-12-07T12:33:27;14.77;;;9.23;;
48327;SDS011;34136;51.022;7.082;2022-12-07T12:39:18;13.38;;;9.02;;
48327;SDS011;34136;51.022;7.082;2022-12-07T12:42:05;17.15;;;9.50;;
48327;SDS011;34136;51.022;7.082;2022-12-07T12:45:05;15.30;;;8.95;;
48327;SDS011;34136;51.022;7.082;2022-12-07T12:54:23;13.13;;;8.38;;
48327;SDS011;34136;51.022;7.082;2022-12-07T13:00:16;13.23;;;9.13;;
48327;SDS011;34136;51.022;7.082;2022-12-07T13:03:04;15.60;;;9.13;;
48327;SDS011;34136;51.022;7.082;2022-12-07T13:06:16;17.77;;;10.68;;
48327;SDS011;34136;51.022;7.082;2022-12-07T13:09:03;16.33;;;9.48;;
48327;SDS011;34136;51.022;7.082;2022-12-07T13:11:55;24.00;;;10.38;;
48327;SDS011;34136;51.022;7.082;2022-12-07T13:14:53;13.48;;;8.82;;
48327;SDS011;34136;51.022;7.082;2022-12-07T13:29:22;19.00;;;10.02;;
48327;SDS011;34136;51.022;7.082;2022-12-07T13:32:17;14.60;;;10.48;;
48327;SDS011;34136;51.022;7.082;2022-12-07T13:38:25;20.58;;;12.43;;
48327;SDS011;34136;51.022;7.082;2022-12-07T13:41:16;19.73;;;11.57;;
48327;SDS011;34136;51.022;7.082;2022-12-07T13:44:11;16.75;;;10.05;;
48327;SDS011;34136;51.022;7.082;2022-12-07T13:47:00;17.52;;;10.50;;
48327;SDS011;34136;51.022;7.082;2022-12-07T13:50:29;26.38;;;11.52;;
48327;SDS011;34136;51.022;7.082;2022-12-07T13:53:17;22.35;;;10.95;;
48327;SDS011;34136;51.022;7.082;2022-12-07T13:56:03;19.50;;;9.02;;
48327;SDS011;34136;51.022;7.082;2022-12-07T13:58:50;15.73;;;8.75;;
48327;SDS011;34136;51.022;7.082;2022-12-07T14:01:36;20.30;;;8.82;;
48327;SDS011;34136;51.022;7.082;2022-12-07T14:04:33;20.58;;;9.32;;
48327;SDS011;34136;51.022;7.082;2022-12-07T14:07:25;20.70;;;9.57;;
48327;SDS011;34136;51.022;7.082;2022-12-07T14:10:26;19.92;;;9.48;;
48327;SDS011;34136;51.022;7.082;2022-12-07T14:13:31;16.25;;;9.57;;
48327;SDS011;34136;51.022;7.082;2022-12-07T14:19:04;13.43;;;9.00;;
48327;SDS011;34136;51.022;7.082;2022-12-07T14:22:19;21.55;;;9.93;;
48327;SDS011;34136;51.022;7.082;2022-12-07T14:25:14;17.90;;;9.30;;
48327;SDS011;34136;51.022;7.082;2022-12-07T14:28:03;22.58;;;10.23;;
48327;SDS011;34136;51.022;7.082;2022-12-07T14:30:50;19.45;;;10.90;;
48327;SDS011;34136;51.022;7.082;2022-12-07T14:33:36;17.88;;;8.70;;
48327;SDS011;34136;51.022;7.082;2022-12-07T14:36:23;15.95;;;9.15;;
48327;SDS011;34136;51.022;7.082;2022-12-07T14:39:10;20.27;;;9.15;;
48327;SDS011;34136;51.022;7.082;2022-12-07T14:41:56;16.08;;;9.30;;
48327;SDS011;34136;51.022;7.082;2022-12-07T14:44:42;17.50;;;9.05;;
48327;SDS011;34136;51.022;7.082;2022-12-07T14:47:29;16.95;;;8.93;;
48327;SDS011;34136;51.022;7.082;2022-12-07T14:50:16;18.40;;;9.85;;
48327;SDS011;34136;51.022;7.082;2022-12-07T14:53:09;17.80;;;9.63;;
48327;SDS011;34136;51.022;7.082;2022-12-07T14:56:00;17.17;;;9.75;;
48327;SDS011;34136;51.022;7.082;2022-12-07T14:58:46;22.67;;;10.27;;
48327;SDS011;34136;51.022;7.082;2022-12-07T15:01:33;19.40;;;9.73;;
48327;SDS011;34136;51.022;7.082;2022-12-07T15:07:54;18.00;;;10.75;;
48327;SDS011;34136;51.022;7.082;2022-12-07T15:10:40;20.27;;;11.13;;
48327;SDS011;34136;51.022;7.082;2022-12-07T15:13:26;21.08;;;11.82;;
48327;SDS011;34136;51.022;7.082;2022-12-07T15:16:13;18.85;;;12.50;;
48327;SDS011;34136;51.022;7.082;2022-12-07T15:19:01;20.35;;;12.40;;
48327;SDS011;34136;51.022;7.082;2022-12-07T15:21:47;24.92;;;14.05;;
48327;SDS011;34136;51.022;7.082;2022-12-07T15:24:33;22.92;;;13.05;;
48327;SDS011;34136;51.022;7.082;2022-12-07T15:27:20;23.42;;;13.02;;
48327;SDS011;34136;51.022;7.082;2022-12-07T15:30:06;23.42;;;12.55;;
48327;SDS011;34136;51.022;7.082;2022-12-07T15:32:53;19.35;;;12.48;;
48327;SDS011;34136;51.022;7.082;2022-12-07T15:35:40;22.27;;;12.20;;
48327;SDS011;34136;51.022;7.082;2022-12-07T15:38:32;17.40;;;11.63;;
48327;SDS011;34136;51.022;7.082;2022-12-07T15:41:18;21.10;;;12.52;;
48327;SDS011;34136;51.022;7.082;2022-12-07T15:44:05;21.77;;;12.02;;
48327;SDS011;34136;51.022;7.082;2022-12-07T15:46:52;15.80;;;10.50;;
48327;SDS011;34136;51.022;7.082;2022-12-07T15:49:37;13.98;;;10.07;;
48327;SDS011;34136;51.022;7.082;2022-12-07T15:52:24;17.40;;;10.55;;
48327;SDS011;34136;51.022;7.082;2022-12-07T15:55:13;12.63;;;7.93;;
48327;SDS011;34136;51.022;7.082;2022-12-07T15:57:59;14.93;;;9.95;;
48327;SDS011;34136;51.022;7.082;2022-12-07T16:00:46;15.38;;;8.88;;
48327;SDS011;34136;51.022;7.082;2022-12-07T16:03:35;15.57;;;9.23;;
48327;SDS011;34136;51.022;7.082;2022-12-07T16:06:21;16.95;;;9.05;;
48327;SDS011;34136;51.022;7.082;2022-12-07T16:09:07;12.68;;;8.50;;
48327;SDS011;34136;51.022;7.082;2022-12-07T16:11:54;12.43;;;7.93;;
48327;SDS011;34136;51.022;7.082;2022-12-07T16:14:41;11.48;;;6.85;;
48327;SDS011;34136;51.022;7.082;2022-12-07T16:17:27;11.90;;;6.90;;
48327;SDS011;34136;51.022;7.082;2022-12-07T16:20:13;13.68;;;7.75;;
48327;SDS011;34136;51.022;7.082;2022-12-07T16:23:00;12.07;;;7.53;;
48327;SDS011;34136;51.022;7.082;2022-12-07T16:26:05;11.55;;;8.02;;
48327;SDS011;34136;51.022;7.082;2022-12-07T16:28:53;11.65;;;8.55;;
48327;SDS011;34136;51.022;7.082;2022-12-07T16:31:58;18.48;;;11.00;;
48327;SDS011;34136;51.022;7.082;2022-12-07T16:35:02;17.15;;;10.57;;
48327;SDS011;34136;51.022;7.082;2022-12-07T16:37:49;15.70;;;10.57;;
48327;SDS011;34136;51.022;7.082;2022-12-07T16:40:54;50.53;;;23.77;;
48327;SDS011;34136;51.022;7.082;2022-12-07T16:43:40;38.95;;;19.40;;
48327;SDS011;34136;51.022;7.082;2022-12-07T16:46:26;62.00;;;30.20;;
48327;SDS011;34136;51.022;7.082;2022-12-07T16:49:15;48.10;;;23.80;;
48327;SDS011;34136;51.022;7.082;2022-12-07T16:52:01;27.15;;;16.65;;
48327;SDS011;34136;51.022;7.082;2022-12-07T16:54:48;41.92;;;24.75;;
48327;SDS011;34136;51.022;7.082;2022-12-07T16:57:35;19.02;;;13.32;;
48327;SDS011;34136;51.022;7.082;2022-12-07T17:00:21;17.83;;;10.63;;
48327;SDS011;34136;51.022;7.082;2022-12-07T17:03:08;13.55;;;11.25;;
48327;SDS011;34136;51.022;7.082;2022-12-07T17:05:54;16.85;;;10.43;;
48327;SDS011;34136;51.022;7.082;2022-12-07T17:08:41;15.85;;;11.10;;
48327;SDS011;34136;51.022;7.082;2022-12-07T17:11:29;14.95;;;11.50;;
48327;SDS011;34136;51.022;7.082;2022-12-07T17:14:24;15.27;;;10.68;;
48327;SDS011;34136;51.022;7.082;2022-12-07T17:17:29;15.40;;;11.70;;
48327;SDS011;34136;51.022;7.082;2022-12-07T17:20:15;17.75;;;12.20;;
48327;SDS011;34136;51.022;7.082;2022-12-07T17:23:21;14.90;;;12.20;;
48327;SDS011;34136;51.022;7.082;2022-12-07T17:26:09;15.57;;;12.77;;
48327;SDS011;34136;51.022;7.082;2022-12-07T17:29:16;17.83;;;13.55;;
48327;SDS011;34136;51.022;7.082;2022-12-07T17:32:04;20.45;;;13.68;;
48327;SDS011;34136;51.022;7.082;2022-12-07T17:34:50;16.50;;;13.50;;
48327;SDS011;34136;51.022;7.082;2022-12-07T17:37:36;20.60;;;14.75;;
48327;SDS011;34136;51.022;7.082;2022-12-07T17:40:23;19.88;;;15.82;;
48327;SDS011;34136;51.022;7.082;2022-12-07T17:43:09;22.98;;;17.52;;
48327;SDS011;34136;51.022;7.082;2022-12-07T17:45:55;21.20;;;17.77;;
48327;SDS011;34136;51.022;7.082;2022-12-07T17:48:41;20.88;;;17.67;;
48327;SDS011;34136;51.022;7.082;2022-12-07T17:51:27;23.00;;;18.50;;
48327;SDS011;34136;51.022;7.082;2022-12-07T17:54:14;27.83;;;21.98;;
48327;SDS011;34136;51.022;7.082;2022-12-07T17:57:19;28.02;;;20.08;;
48327;SDS011;34136;51.022;7.082;2022-12-07T18:00:06;26.70;;;19.00;;
48327;SDS011;34136;51.022;7.082;2022-12-07T18:02:59;22.33;;;19.85;;
48327;SDS011;34136;51.022;7.082;2022-12-07T18:05:45;25.45;;;20.17;;
48327;SDS011;34136;51.022;7.082;2022-12-07T18:08:33;23.08;;;20.23;;
48327;SDS011;34136;51.022;7.082;2022-12-07T18:11:20;23.55;;;18.17;;
48327;SDS011;34136;51.022;7.082;2022-12-07T18:14:06;23.95;;;18.25;;
48327;SDS011;34136;51.022;7.082;2022-12-07T18:16:53;21.08;;;17.92;;
48327;SDS011;34136;51.022;7.082;2022-12-07T18:19:39;19.77;;;17.05;;
48327;SDS011;34136;51.022;7.082;2022-12-07T18:22:25;28.15;;;18.27;;
48327;SDS011;34136;51.022;7.082;2022-12-07T18:25:11;20.20;;;17.65;;
48327;SDS011;34136;51.022;7.082;2022-12-07T18:27:57;25.45;;;17.70;;
48327;SDS011;34136;51.022;7.082;2022-12-07T18:30:44;21.65;;;17.33;;
48327;SDS011;34136;51.022;7.082;2022-12-07T18:33:30;22.38;;;17.80;;
48327;SDS011;34136;51.022;7.082;2022-12-07T18:36:35;25.45;;;17.95;;
48327;SDS011;34136;51.022;7.082;2022-12-07T18:39:21;24.88;;;18.67;;